Anthony, Pennsylvania
Current Conditions -  °F | °C
As of 12:54 PM on Monday 20 Oct 2014 (Local Time) from KIPT Reporting Station
Few Clouds Few Clouds  
Wind Chill: 12°   Ceiling: Unl
Heat Index: 12°   Visibility: 10mi
Dew Point:   Wind: 9mph
Humidity: 55%   Direction: 180°S
Pressure: 29.97"   Gusts: NA
Location:  41.1183°N, 76.7254°W
Report Text: KIPT 201654Z 18008KT 10SM FEW120 12/03 A2997 RMK AO2 PRESFR SLP152 T01170028
Loading
Personal Weather Stations






























Interactive Weather Map
Tropical Storm Tracking
New forecast layout! Learn more

10-Day Weather Forecast

Advertisements
Track Severe Weather on mobile